createdAt,value
2022-12-08T00:00:15.325Z,12.90
2022-12-08T00:01:15.275Z,13.60
2022-12-08T00:02:15.422Z,12.10
2022-12-08T00:03:15.313Z,12.80
2022-12-08T00:04:15.203Z,12.40
2022-12-08T00:05:15.142Z,13.00
2022-12-08T00:06:15.159Z,13.00
2022-12-08T00:07:15.098Z,12.30
2022-12-08T00:08:15.163Z,12.30
2022-12-08T00:09:15.049Z,13.00
2022-12-08T00:10:47.103Z,13.00
2022-12-08T00:11:14.992Z,13.40
2022-12-08T00:12:14.982Z,14.00
2022-12-08T00:13:14.901Z,12.70
2022-12-08T00:14:14.890Z,12.90
2022-12-08T00:15:14.845Z,13.10
2022-12-08T00:16:14.927Z,13.20
2022-12-08T00:17:14.799Z,12.60
2022-12-08T00:18:14.789Z,12.50
2022-12-08T00:19:14.750Z,12.20
2022-12-08T00:20:14.694Z,13.10
2022-12-08T00:21:14.673Z,11.90
2022-12-08T00:22:14.746Z,12.20
2022-12-08T00:23:14.597Z,12.60
2022-12-08T00:24:14.595Z,13.20
2022-12-08T00:25:14.548Z,12.80
2022-12-08T00:26:14.529Z,13.70
2022-12-08T00:27:14.487Z,14.70
2022-12-08T00:28:14.581Z,14.10
2022-12-08T00:29:17.338Z,15.40
2022-12-08T00:30:14.425Z,15.30
2022-12-08T00:31:14.377Z,15.00
2022-12-08T00:32:14.471Z,14.50
2022-12-08T00:33:18.258Z,14.60
2022-12-08T00:34:18.323Z,14.30
2022-12-08T00:35:18.248Z,15.30
2022-12-08T00:36:18.227Z,15.90
2022-12-08T00:37:18.210Z,15.30
2022-12-08T00:38:18.210Z,15.40
2022-12-08T00:39:18.161Z,15.70
2022-12-08T00:40:18.135Z,15.80
2022-12-08T00:41:18.092Z,15.70
2022-12-08T00:42:18.117Z,16.80
2022-12-08T00:43:18.063Z,17.00
2022-12-08T00:44:18.068Z,16.80
2022-12-08T00:45:18.037Z,16.10
2022-12-08T00:46:18.032Z,17.60
2022-12-08T00:47:22.116Z,16.30
2022-12-08T00:48:17.947Z,17.30
2022-12-08T00:49:17.912Z,16.50
2022-12-08T00:50:17.895Z,17.00
2022-12-08T00:51:17.861Z,17.70
2022-12-08T00:52:17.824Z,16.30
2022-12-08T00:53:17.782Z,18.00
2022-12-08T00:54:17.793Z,16.90
2022-12-08T00:55:17.741Z,17.30
2022-12-08T00:56:17.723Z,16.80
2022-12-08T00:57:17.705Z,17.70
2022-12-08T00:58:17.676Z,17.20
2022-12-08T00:59:17.651Z,17.60
2022-12-08T01:00:17.626Z,18.30
2022-12-08T01:01:17.622Z,17.60
2022-12-08T01:02:17.563Z,17.80
2022-12-08T01:03:17.668Z,19.60
2022-12-08T01:04:17.522Z,18.20
2022-12-08T01:05:17.462Z,17.90
2022-12-08T01:06:17.445Z,18.10
2022-12-08T01:07:17.400Z,18.30
2022-12-08T01:08:17.471Z,18.30
2022-12-08T01:09:17.375Z,17.30
2022-12-08T01:10:17.341Z,18.30
2022-12-08T01:11:17.325Z,18.30
2022-12-08T01:12:17.283Z,18.90
2022-12-08T01:13:17.253Z,19.20
2022-12-08T01:14:17.261Z,19.90
2022-12-08T01:15:17.225Z,19.70
2022-12-08T01:16:17.260Z,20.60
2022-12-08T01:17:17.157Z,20.10
2022-12-08T01:18:17.152Z,19.10
2022-12-08T01:19:17.105Z,21.30
2022-12-08T01:20:17.124Z,18.70
2022-12-08T01:21:17.076Z,19.50
2022-12-08T01:22:17.067Z,19.70
2022-12-08T01:23:17.008Z,19.50
2022-12-08T01:24:16.993Z,18.80
2022-12-08T01:25:16.946Z,18.60
2022-12-08T01:26:16.929Z,19.00
2022-12-08T01:27:16.925Z,19.40
2022-12-08T01:28:16.865Z,17.50
2022-12-08T01:29:16.817Z,18.60
2022-12-08T01:30:16.805Z,17.60
2022-12-08T01:31:16.966Z,18.20
2022-12-08T01:32:16.747Z,18.40
2022-12-08T01:33:16.695Z,18.60
2022-12-08T01:34:17.200Z,17.40
2022-12-08T01:35:16.626Z,18.80
2022-12-08T01:36:22.510Z,18.40
2022-12-08T01:37:22.584Z,19.90
2022-12-08T01:38:22.547Z,19.10
2022-12-08T01:39:22.515Z,18.50
2022-12-08T01:40:22.456Z,19.50
2022-12-08T01:41:22.449Z,20.10
2022-12-08T01:42:22.436Z,19.50
2022-12-08T01:43:22.520Z,19.80
2022-12-08T01:44:22.341Z,19.80
2022-12-08T01:45:22.346Z,20.40
2022-12-08T01:46:22.368Z,19.50
2022-12-08T01:47:22.277Z,19.70
2022-12-08T01:48:22.344Z,20.60
2022-12-08T01:49:22.259Z,20.20
2022-12-08T01:50:22.181Z,19.70
2022-12-08T01:51:22.191Z,20.40
2022-12-08T01:52:22.137Z,20.60
2022-12-08T01:53:22.136Z,21.00
2022-12-08T01:54:22.114Z,21.50
2022-12-08T01:55:22.069Z,20.70
2022-12-08T01:56:22.039Z,21.20
2022-12-08T01:57:22.055Z,21.30
2022-12-08T01:58:21.975Z,21.00
2022-12-08T01:59:21.964Z,21.00
2022-12-08T02:00:21.935Z,19.80
2022-12-08T02:01:22.024Z,21.50
2022-12-08T02:02:21.934Z,21.40
2022-12-08T02:03:21.882Z,20.70
2022-12-08T02:04:21.830Z,20.70
2022-12-08T02:05:21.891Z,20.90
2022-12-08T02:06:21.890Z,21.70
2022-12-08T02:07:21.786Z,21.60
2022-12-08T02:08:21.807Z,20.80
2022-12-08T02:09:21.752Z,21.20
2022-12-08T02:10:21.717Z,21.40
2022-12-08T02:11:21.693Z,22.10
2022-12-08T02:12:21.653Z,20.60
2022-12-08T02:13:21.643Z,22.10
2022-12-08T02:14:21.614Z,22.20
2022-12-08T02:15:21.610Z,20.50
2022-12-08T02:16:21.640Z,22.10
2022-12-08T02:17:21.571Z,22.00
2022-12-08T02:18:21.540Z,23.30
2022-12-08T02:19:30.653Z,23.50
2022-12-08T02:20:21.498Z,23.90
2022-12-08T02:21:21.515Z,23.60
2022-12-08T02:22:21.478Z,23.20
2022-12-08T02:23:21.515Z,23.40
2022-12-08T02:24:21.482Z,25.50
2022-12-08T02:25:21.438Z,25.50
2022-12-08T02:26:21.439Z,24.20
2022-12-08T02:27:21.457Z,24.20
2022-12-08T02:28:21.374Z,25.20
2022-12-08T02:29:21.386Z,26.70
2022-12-08T02:30:21.404Z,24.90
2022-12-08T02:31:21.459Z,25.40
2022-12-08T02:32:21.322Z,26.50
2022-12-08T02:33:21.304Z,27.60
2022-12-08T02:34:21.284Z,28.60
2022-12-08T02:35:21.270Z,27.20
2022-12-08T02:36:21.243Z,27.20
2022-12-08T02:37:21.281Z,26.80
2022-12-08T02:38:21.226Z,25.90
2022-12-08T02:39:21.183Z,26.10
2022-12-08T02:40:21.128Z,26.30
2022-12-08T02:41:21.135Z,26.00
2022-12-08T02:42:21.103Z,25.80
2022-12-08T02:43:21.100Z,25.00
2022-12-08T02:44:21.037Z,25.20
2022-12-08T02:45:21.029Z,25.10
2022-12-08T02:46:21.095Z,25.40
2022-12-08T02:47:20.985Z,25.40
2022-12-08T02:48:20.986Z,25.10
2022-12-08T02:49:20.957Z,24.20
2022-12-08T02:51:24.736Z,25.70
2022-12-08T02:52:24.849Z,24.10
2022-12-08T02:53:24.867Z,22.10
2022-12-08T02:54:24.792Z,22.90
2022-12-08T02:55:24.741Z,22.30
2022-12-08T02:56:24.748Z,23.10
2022-12-08T02:57:24.703Z,23.70
2022-12-08T02:58:24.706Z,22.90
2022-12-08T02:59:24.751Z,21.50
2022-12-08T03:00:24.776Z,20.90
2022-12-08T03:01:24.686Z,20.80
2022-12-08T03:02:24.632Z,22.40
2022-12-08T03:03:24.550Z,21.70
2022-12-08T03:04:24.550Z,20.70
2022-12-08T03:05:24.536Z,22.30
2022-12-08T03:06:30.430Z,22.30
2022-12-08T03:07:30.503Z,22.20
2022-12-08T03:08:30.503Z,22.00
2022-12-08T03:09:30.439Z,21.90
2022-12-08T03:10:30.395Z,22.20
2022-12-08T03:11:30.395Z,21.90
2022-12-08T03:12:30.327Z,22.30
2022-12-08T03:13:36.195Z,21.30
2022-12-08T03:14:36.272Z,22.30
2022-12-08T03:15:36.312Z,19.10
2022-12-08T03:16:36.249Z,20.90
2022-12-08T03:17:36.211Z,19.90
2022-12-08T03:18:36.201Z,18.40
2022-12-08T03:19:36.146Z,18.70
2022-12-08T03:20:41.079Z,20.60
2022-12-08T03:21:41.151Z,18.80
2022-12-08T03:22:41.110Z,19.20
2022-12-08T03:23:41.097Z,19.20
2022-12-08T03:24:41.069Z,18.70
2022-12-08T03:25:41.038Z,19.30
2022-12-08T03:26:40.995Z,20.70
2022-12-08T03:27:40.965Z,19.40
2022-12-08T03:28:40.926Z,20.00
2022-12-08T03:29:40.973Z,19.60
2022-12-08T03:31:50.811Z,21.00
2022-12-08T03:32:50.842Z,20.30
2022-12-08T03:33:50.789Z,21.60
2022-12-08T03:34:50.790Z,20.50
2022-12-08T03:35:50.725Z,22.40
2022-12-08T03:36:50.703Z,22.70
2022-12-08T03:37:50.687Z,22.50
2022-12-08T03:38:50.649Z,21.80
2022-12-08T03:39:50.612Z,21.70
2022-12-08T03:40:50.620Z,21.60
2022-12-08T03:41:50.569Z,22.10
2022-12-08T03:42:50.623Z,22.80
2022-12-08T03:43:54.533Z,23.70
2022-12-08T03:44:54.508Z,22.80
2022-12-08T03:45:54.470Z,23.80
2022-12-08T03:46:54.505Z,22.40
2022-12-08T03:47:54.431Z,23.50
2022-12-08T03:48:54.425Z,22.70
2022-12-08T03:49:54.391Z,23.50
2022-12-08T03:51:00.260Z,24.80
2022-12-08T03:52:00.366Z,23.50
2022-12-08T03:53:00.348Z,25.10
2022-12-08T03:54:00.340Z,24.40
2022-12-08T03:56:54.200Z,24.30
2022-12-08T03:57:54.232Z,24.50
2022-12-08T03:58:54.205Z,24.90
2022-12-08T03:59:54.196Z,23.10
2022-12-08T04:00:54.169Z,23.30
2022-12-08T04:01:54.269Z,23.50
2022-12-08T04:02:54.226Z,24.20
2022-12-08T04:03:54.136Z,24.50
2022-12-08T04:04:54.076Z,22.90
2022-12-08T04:05:54.088Z,24.60
2022-12-08T04:06:54.051Z,24.10
2022-12-08T04:07:54.053Z,24.20
2022-12-08T04:08:53.976Z,23.50
2022-12-08T04:09:53.961Z,24.10
2022-12-08T04:10:53.933Z,23.40
2022-12-08T04:11:53.903Z,23.60
2022-12-08T04:12:53.886Z,23.10
2022-12-08T04:13:53.856Z,22.20
2022-12-08T04:14:53.847Z,21.90
2022-12-08T04:15:53.936Z,23.60
2022-12-08T04:16:53.776Z,21.60
2022-12-08T04:17:53.760Z,22.70
2022-12-08T04:18:53.728Z,21.80
2022-12-08T04:19:53.699Z,23.30
2022-12-08T04:20:53.686Z,22.60
2022-12-08T04:21:53.658Z,23.50
2022-12-08T04:22:53.590Z,21.80
2022-12-08T04:23:59.159Z,22.90
2022-12-08T04:24:53.552Z,23.30
2022-12-08T04:25:53.544Z,21.60
2022-12-08T04:26:53.526Z,22.70
2022-12-08T04:27:53.493Z,22.50
2022-12-08T04:28:53.448Z,23.60
2022-12-08T04:29:53.435Z,23.20
2022-12-08T04:30:53.403Z,21.70
2022-12-08T04:31:53.452Z,22.90
2022-12-08T04:32:53.444Z,21.80
2022-12-08T04:33:53.351Z,23.40
2022-12-08T04:34:53.300Z,22.10
2022-12-08T04:35:53.294Z,21.60
2022-12-08T04:36:53.276Z,22.70
2022-12-08T04:37:53.284Z,23.50
2022-12-08T04:38:53.246Z,20.10
2022-12-08T04:39:53.198Z,21.70
2022-12-08T04:40:53.181Z,22.50
2022-12-08T04:41:53.181Z,23.80
2022-12-08T04:42:53.143Z,23.00
2022-12-08T04:43:53.144Z,20.90
2022-12-08T04:44:53.121Z,22.00
2022-12-08T04:45:58.976Z,21.50
2022-12-08T04:46:59.182Z,19.50
2022-12-08T04:47:59.041Z,19.90
2022-12-08T04:49:03.961Z,19.60
2022-12-08T04:50:04.414Z,19.50
2022-12-08T04:51:03.974Z,20.30
2022-12-08T04:52:03.962Z,20.90
2022-12-08T04:53:03.936Z,19.50
2022-12-08T04:54:03.943Z,20.00
2022-12-08T04:55:03.895Z,20.20
2022-12-08T04:56:03.887Z,20.80
2022-12-08T04:57:03.884Z,20.60
2022-12-08T04:58:03.851Z,19.90
2022-12-08T04:59:03.812Z,20.10
2022-12-08T05:00:04.050Z,19.20
2022-12-08T05:01:03.865Z,20.30
2022-12-08T05:02:03.969Z,17.80
2022-12-08T05:03:03.837Z,20.00
2022-12-08T05:04:03.750Z,17.80
2022-12-08T05:05:03.709Z,18.60
2022-12-08T05:06:03.707Z,19.30
2022-12-08T05:07:03.683Z,18.90
2022-12-08T05:08:03.846Z,16.30
2022-12-08T05:09:03.657Z,17.40
2022-12-08T05:10:03.933Z,17.70
2022-12-08T05:11:03.600Z,16.60
2022-12-08T05:12:03.609Z,17.10
2022-12-08T05:13:03.575Z,16.60
2022-12-08T05:14:03.597Z,16.50
2022-12-08T05:15:03.539Z,17.30
2022-12-08T05:16:03.603Z,17.30
2022-12-08T05:17:09.342Z,17.50
2022-12-08T05:18:03.501Z,17.10
2022-12-08T05:19:03.486Z,15.70
2022-12-08T05:20:03.749Z,16.60
2022-12-08T05:21:03.437Z,15.70
2022-12-08T05:22:03.414Z,16.20
2022-12-08T05:23:03.392Z,15.90
2022-12-08T05:24:03.408Z,17.30
2022-12-08T05:25:03.361Z,15.40
2022-12-08T05:26:03.388Z,16.20
2022-12-08T05:27:03.347Z,16.40
2022-12-08T05:28:32.936Z,15.90
2022-12-08T05:29:03.333Z,16.90
2022-12-08T05:30:03.749Z,16.10
2022-12-08T05:31:03.353Z,16.40
2022-12-08T05:32:03.338Z,17.90
2022-12-08T05:33:03.230Z,18.60
2022-12-08T05:34:03.637Z,17.30
2022-12-08T05:35:03.185Z,18.90
2022-12-08T05:36:03.175Z,17.10
2022-12-08T05:37:03.169Z,16.30
2022-12-08T05:38:03.231Z,17.80
2022-12-08T05:39:03.110Z,17.40
2022-12-08T05:40:03.712Z,16.10
2022-12-08T05:41:03.103Z,15.80
2022-12-08T05:42:03.067Z,17.20
2022-12-08T05:43:03.024Z,15.70
2022-12-08T05:44:08.967Z,16.20
2022-12-08T05:45:12.889Z,15.80
2022-12-08T05:46:13.005Z,15.30
2022-12-08T05:47:12.959Z,14.80
2022-12-08T05:48:12.953Z,12.50
2022-12-08T05:49:12.908Z,13.70
2022-12-08T05:50:12.885Z,13.10
2022-12-08T05:51:12.865Z,14.10
2022-12-08T05:52:12.843Z,13.30
2022-12-08T05:53:12.797Z,13.30
2022-12-08T05:54:12.796Z,13.40
2022-12-08T05:55:12.771Z,13.60
2022-12-08T05:56:12.749Z,12.50
2022-12-08T05:57:12.698Z,13.80
2022-12-08T05:58:12.698Z,14.60
2022-12-08T05:59:12.648Z,13.30
2022-12-08T06:00:12.659Z,12.00
2022-12-08T06:01:12.621Z,12.10
2022-12-08T06:02:12.745Z,11.40
2022-12-08T06:03:12.633Z,11.40
2022-12-08T06:04:12.545Z,11.00
2022-12-08T06:05:12.496Z,12.20
2022-12-08T06:06:12.475Z,12.70
2022-12-08T06:07:16.083Z,12.40
2022-12-08T06:08:12.575Z,12.40
2022-12-08T06:09:12.364Z,12.00
2022-12-08T06:10:12.326Z,11.60
2022-12-08T06:11:12.295Z,11.30
2022-12-08T06:12:12.264Z,11.50
2022-12-08T06:13:12.243Z,11.70
2022-12-08T06:14:12.215Z,11.00
2022-12-08T06:15:12.159Z,12.30
2022-12-08T06:16:18.135Z,11.80
2022-12-08T06:17:18.134Z,11.80
2022-12-08T06:18:18.177Z,10.80
2022-12-08T06:19:22.960Z,12.30
2022-12-08T06:20:23.088Z,10.90
2022-12-08T06:21:22.990Z,12.10
2022-12-08T06:22:22.991Z,13.40
2022-12-08T06:23:22.957Z,11.70
2022-12-08T06:24:22.942Z,11.60
2022-12-08T06:25:22.876Z,12.00
2022-12-08T06:26:22.896Z,11.10
2022-12-08T06:27:22.823Z,11.00
2022-12-08T06:28:22.828Z,11.70
2022-12-08T06:29:22.789Z,11.50
2022-12-08T06:30:22.787Z,10.70
2022-12-08T06:31:22.778Z,10.40
2022-12-08T06:32:27.222Z,10.40
2022-12-08T06:33:22.616Z,9.80
2022-12-08T06:34:22.637Z,10.10
2022-12-08T06:35:22.570Z,12.00
2022-12-08T06:36:28.427Z,12.20
2022-12-08T06:37:28.493Z,11.70
2022-12-08T06:38:28.470Z,12.30
2022-12-08T06:39:28.444Z,12.00
2022-12-08T06:40:28.405Z,12.70
2022-12-08T06:41:28.409Z,12.80
2022-12-08T06:42:28.334Z,12.70
2022-12-08T06:43:28.330Z,12.20
2022-12-08T06:44:28.306Z,13.00
2022-12-08T06:45:28.279Z,11.60
2022-12-08T06:46:33.221Z,11.80
2022-12-08T06:47:33.219Z,11.20
2022-12-08T06:48:33.155Z,11.40
2022-12-08T06:49:33.147Z,12.60
2022-12-08T06:50:33.097Z,11.60
2022-12-08T06:51:33.094Z,13.00
2022-12-08T06:52:33.087Z,12.80
2022-12-08T06:53:33.038Z,12.60
2022-12-08T06:54:33.003Z,14.10
2022-12-08T06:55:58.379Z,13.00
2022-12-08T06:56:32.903Z,13.70
2022-12-08T06:57:37.846Z,13.30
2022-12-08T06:58:37.852Z,13.40
2022-12-08T06:59:37.814Z,13.60
2022-12-08T07:00:37.804Z,14.10
2022-12-08T07:01:37.819Z,13.00
2022-12-08T07:02:37.771Z,14.80
2022-12-08T07:03:37.730Z,13.40
2022-12-08T07:04:37.733Z,13.40
2022-12-08T07:05:37.654Z,14.50
2022-12-08T07:06:37.685Z,13.80
2022-12-08T07:07:37.607Z,14.00
2022-12-08T07:08:38.097Z,14.00
2022-12-08T07:09:37.539Z,14.30
2022-12-08T07:10:37.524Z,14.00
2022-12-08T07:11:37.474Z,14.30
2022-12-08T07:12:37.450Z,13.10
2022-12-08T07:13:37.442Z,14.00
2022-12-08T07:14:37.417Z,14.30
2022-12-08T07:15:37.356Z,14.70
2022-12-08T07:16:37.415Z,15.00
2022-12-08T07:17:37.291Z,14.40
2022-12-08T07:18:37.281Z,14.30
2022-12-08T07:19:37.237Z,14.60
2022-12-08T07:20:37.229Z,15.10
2022-12-08T07:21:37.167Z,15.80
2022-12-08T07:22:37.174Z,15.50
2022-12-08T07:23:37.120Z,16.60
2022-12-08T07:24:37.105Z,16.10
2022-12-08T07:25:37.032Z,15.60
2022-12-08T07:26:37.043Z,16.90
2022-12-08T07:27:36.971Z,16.60
2022-12-08T07:28:36.958Z,17.30
2022-12-08T07:29:36.889Z,17.60
2022-12-08T07:30:41.812Z,17.10
2022-12-08T07:31:41.836Z,16.20
2022-12-08T07:32:41.779Z,17.00
2022-12-08T07:33:41.773Z,15.00
2022-12-08T07:34:41.708Z,16.40
2022-12-08T07:35:46.317Z,15.90
2022-12-08T07:36:41.638Z,15.80
2022-12-08T07:37:41.665Z,16.20
2022-12-08T07:38:41.580Z,15.90
2022-12-08T07:39:41.527Z,15.90
2022-12-08T07:40:41.489Z,16.70
2022-12-08T07:41:41.469Z,17.30
2022-12-08T07:42:41.390Z,17.00
2022-12-08T07:43:41.393Z,16.50
2022-12-08T07:44:41.340Z,17.00
2022-12-08T07:45:41.364Z,15.50
2022-12-08T07:46:41.306Z,16.00
2022-12-08T07:47:41.250Z,15.40
2022-12-08T07:48:41.210Z,14.50
2022-12-08T07:49:41.219Z,16.10
2022-12-08T07:50:41.150Z,15.70
2022-12-08T07:51:41.120Z,15.30
2022-12-08T07:52:41.045Z,15.50
2022-12-08T07:53:42.729Z,14.00
2022-12-08T07:54:41.014Z,15.10
2022-12-08T07:55:41.000Z,15.60
2022-12-08T07:56:40.954Z,14.00
2022-12-08T07:57:40.933Z,14.70
2022-12-08T07:58:40.977Z,14.90
2022-12-08T07:59:40.833Z,15.00
2022-12-08T08:00:40.844Z,15.70
2022-12-08T08:01:41.391Z,14.80
2022-12-08T08:02:40.908Z,13.80
2022-12-08T08:03:40.685Z,14.50
2022-12-08T08:04:40.672Z,14.50
2022-12-08T08:05:40.630Z,14.90
2022-12-08T08:06:40.553Z,15.60
2022-12-08T08:07:40.593Z,15.20
2022-12-08T08:08:40.498Z,16.10
2022-12-08T08:09:40.533Z,15.50
2022-12-08T08:10:40.455Z,15.30
2022-12-08T08:11:40.439Z,16.00
2022-12-08T08:12:40.383Z,15.60
2022-12-08T08:13:40.472Z,14.90
2022-12-08T08:14:40.312Z,15.20
2022-12-08T08:15:40.430Z,67.30
2022-12-08T08:16:40.466Z,14.50
2022-12-08T08:17:40.309Z,15.10
2022-12-08T08:18:40.195Z,12.60
2022-12-08T08:21:45.581Z,13.40
2022-12-08T08:22:34.607Z,14.40
2022-12-08T08:23:34.082Z,14.00
2022-12-08T08:24:34.045Z,15.00
2022-12-08T08:25:34.021Z,17.20
2022-12-08T08:26:33.988Z,15.00
2022-12-08T08:27:33.984Z,13.70
2022-12-08T08:28:33.919Z,16.30
2022-12-08T08:29:33.929Z,14.90
2022-12-08T08:30:33.875Z,15.60
2022-12-08T08:31:38.952Z,14.40
2022-12-08T08:32:38.873Z,13.00
2022-12-08T08:33:38.786Z,15.80
2022-12-08T08:34:38.799Z,14.30
2022-12-08T08:35:38.748Z,14.30
2022-12-08T08:36:38.855Z,14.10
2022-12-08T08:37:38.728Z,14.40
2022-12-08T08:38:38.742Z,14.40
2022-12-08T08:39:38.677Z,13.80
2022-12-08T08:40:38.668Z,13.70
2022-12-08T08:41:38.617Z,12.80
2022-12-08T08:42:38.631Z,17.60
2022-12-08T08:43:39.018Z,12.40
2022-12-08T08:44:38.589Z,13.50
2022-12-08T08:45:38.517Z,12.20
2022-12-08T08:46:38.546Z,12.50
2022-12-08T08:47:38.433Z,25.00
2022-12-08T08:48:38.914Z,11.80
2022-12-08T08:49:38.404Z,12.70
2022-12-08T08:50:38.417Z,12.20
2022-12-08T08:51:38.355Z,12.60
2022-12-08T08:52:38.368Z,13.30
2022-12-08T08:53:38.345Z,13.30
2022-12-08T08:54:38.285Z,11.40
2022-12-08T08:55:38.222Z,11.30
2022-12-08T08:56:38.244Z,12.90
2022-12-08T08:57:38.168Z,10.60
2022-12-08T08:58:38.148Z,11.30
2022-12-08T08:59:38.090Z,10.50
2022-12-08T09:00:38.078Z,11.40
2022-12-08T09:01:38.148Z,11.30
2022-12-08T09:02:42.910Z,11.30
2022-12-08T09:03:42.962Z,11.10
2022-12-08T09:04:42.982Z,11.90
2022-12-08T09:05:42.947Z,11.30
2022-12-08T09:06:42.854Z,11.70
2022-12-08T09:07:42.889Z,11.40
2022-12-08T09:08:42.832Z,11.40
2022-12-08T09:09:42.820Z,11.30
2022-12-08T09:10:42.775Z,11.80
2022-12-08T09:11:42.773Z,10.70
2022-12-08T09:12:42.714Z,12.40
2022-12-08T09:13:42.741Z,11.20
2022-12-08T09:14:42.697Z,11.60
2022-12-08T09:15:42.729Z,12.00
2022-12-08T09:16:42.827Z,11.20
2022-12-08T09:17:46.506Z,10.20
2022-12-08T09:18:46.594Z,11.00
2022-12-08T09:19:46.570Z,12.20
2022-12-08T09:20:46.534Z,11.70
2022-12-08T09:21:46.500Z,12.20
2022-12-08T09:22:46.482Z,12.20
2022-12-08T09:23:46.435Z,12.30
2022-12-08T09:24:46.465Z,12.70
2022-12-08T09:25:46.381Z,10.90
2022-12-08T09:26:46.346Z,12.60
2022-12-08T09:27:46.304Z,11.70
2022-12-08T09:28:51.232Z,12.30
2022-12-08T09:29:55.115Z,12.20
2022-12-08T09:30:55.394Z,11.80
2022-12-08T09:31:55.268Z,12.00
2022-12-08T09:32:55.112Z,11.70
2022-12-08T09:33:55.061Z,12.40
2022-12-08T09:34:55.100Z,11.70
2022-12-08T09:35:54.991Z,11.40
2022-12-08T09:36:54.987Z,11.70
2022-12-08T09:37:54.924Z,11.90
2022-12-08T09:38:54.916Z,11.00
2022-12-08T09:39:54.833Z,11.20
2022-12-08T09:40:54.838Z,11.10
2022-12-08T09:41:54.765Z,11.50
2022-12-08T09:42:54.800Z,11.20
2022-12-08T09:43:54.694Z,11.20
2022-12-08T09:44:54.681Z,11.70
2022-12-08T09:45:54.664Z,10.60
2022-12-08T09:46:54.678Z,11.00
2022-12-08T09:47:54.603Z,11.70
2022-12-08T09:48:54.621Z,10.90
2022-12-08T09:49:54.500Z,10.60
2022-12-08T09:50:54.478Z,11.30
2022-12-08T09:51:54.477Z,11.40
2022-12-08T09:52:54.432Z,11.30
2022-12-08T09:53:54.407Z,10.50
2022-12-08T09:54:54.433Z,10.60
2022-12-08T09:55:54.345Z,11.00
2022-12-08T09:56:54.374Z,10.50
2022-12-08T09:57:56.471Z,10.90
2022-12-08T09:58:54.340Z,10.80
2022-12-08T09:59:54.285Z,11.20
2022-12-08T10:00:54.319Z,11.10
2022-12-08T10:01:54.348Z,10.70
2022-12-08T10:02:54.259Z,10.50
2022-12-08T10:03:54.238Z,10.80
2022-12-08T10:04:58.166Z,10.70
2022-12-08T10:06:03.081Z,11.50
2022-12-08T10:07:03.206Z,11.40
2022-12-08T10:08:03.231Z,10.80
2022-12-08T10:09:03.675Z,11.80
2022-12-08T10:10:03.704Z,11.30
2022-12-08T10:11:03.109Z,11.40
2022-12-08T10:12:03.053Z,11.60
2022-12-08T10:13:03.046Z,10.40
2022-12-08T10:14:03.004Z,11.50
2022-12-08T10:15:08.894Z,10.70
2022-12-08T10:16:09.024Z,11.00
2022-12-08T10:17:09.016Z,10.80
2022-12-08T10:18:08.897Z,10.60
2022-12-08T10:19:08.883Z,11.30
2022-12-08T10:20:08.888Z,11.60
2022-12-08T10:21:08.960Z,10.00
2022-12-08T10:22:13.739Z,10.70
2022-12-08T10:23:13.823Z,10.30
2022-12-08T10:24:13.834Z,10.30
2022-12-08T10:25:13.751Z,11.50
2022-12-08T10:26:13.797Z,11.20
2022-12-08T10:27:13.703Z,10.50
2022-12-08T10:28:13.636Z,10.40
2022-12-08T10:29:13.638Z,10.60
2022-12-08T10:30:13.625Z,10.60
2022-12-08T10:31:13.642Z,10.40
2022-12-08T10:32:13.643Z,10.10
2022-12-08T10:33:13.520Z,10.70
2022-12-08T10:34:13.489Z,10.70
2022-12-08T10:35:13.477Z,10.60
2022-12-08T10:36:13.431Z,10.40
2022-12-08T10:37:13.448Z,10.30
2022-12-08T10:38:13.420Z,9.70
2022-12-08T10:39:13.373Z,10.00
2022-12-08T10:40:13.329Z,10.80
2022-12-08T10:41:13.328Z,9.60
2022-12-08T10:42:13.293Z,9.10
2022-12-08T10:43:13.270Z,9.20
2022-12-08T10:44:13.268Z,9.40
2022-12-08T10:45:13.238Z,8.90
2022-12-08T10:46:13.242Z,8.90
2022-12-08T10:47:13.282Z,8.50
2022-12-08T10:48:13.106Z,7.80
2022-12-08T10:49:13.159Z,8.60
2022-12-08T10:50:13.072Z,7.00
2022-12-08T10:51:13.033Z,8.00
2022-12-08T10:52:12.987Z,7.70
2022-12-08T10:53:12.957Z,7.60
2022-12-08T10:54:13.761Z,7.50
2022-12-08T10:55:12.913Z,6.90
2022-12-08T10:56:12.883Z,7.20
2022-12-08T10:57:12.855Z,7.50
2022-12-08T10:58:12.797Z,7.30
2022-12-08T10:59:12.799Z,7.40
2022-12-08T11:00:14.380Z,7.20
2022-12-08T11:01:12.816Z,7.70
2022-12-08T11:02:12.881Z,7.90
2022-12-08T11:03:12.675Z,7.80
2022-12-08T11:04:12.618Z,8.30
2022-12-08T11:05:12.616Z,8.40
2022-12-08T11:06:12.558Z,7.50
2022-12-08T11:07:12.537Z,7.40
2022-12-08T11:08:17.463Z,8.20
2022-12-08T11:09:17.480Z,7.90
2022-12-08T11:10:17.572Z,7.80
2022-12-08T11:11:17.392Z,7.60
2022-12-08T11:12:17.329Z,7.50
2022-12-08T11:13:22.222Z,7.10
2022-12-08T11:14:22.284Z,7.80
2022-12-08T11:15:22.243Z,7.50
2022-12-08T11:16:22.298Z,6.90
2022-12-08T11:17:22.183Z,7.10
2022-12-08T11:18:22.169Z,6.20
2022-12-08T11:19:22.132Z,6.90
2022-12-08T11:20:22.149Z,7.20
2022-12-08T11:21:22.055Z,7.10
2022-12-08T11:22:22.060Z,7.00
2022-12-08T11:23:22.016Z,7.60
2022-12-08T11:24:21.986Z,7.60
2022-12-08T11:25:21.962Z,7.60
2022-12-08T11:26:27.874Z,7.00
2022-12-08T11:27:27.886Z,7.00
2022-12-08T11:28:32.737Z,7.70
2022-12-08T11:29:33.356Z,7.40
2022-12-08T11:30:32.872Z,7.00
2022-12-08T11:31:32.794Z,7.10
2022-12-08T11:32:32.691Z,7.90
2022-12-08T11:33:32.678Z,7.80
2022-12-08T11:34:32.638Z,7.40
2022-12-08T11:35:32.637Z,8.10
2022-12-08T11:36:32.622Z,7.20
2022-12-08T11:37:34.988Z,7.60
2022-12-08T11:38:32.551Z,7.00
2022-12-08T11:39:32.565Z,7.20
2022-12-08T11:40:32.547Z,7.80
2022-12-08T11:41:32.541Z,7.40
2022-12-08T11:42:32.469Z,7.80
2022-12-08T11:43:32.429Z,7.40
2022-12-08T11:44:32.391Z,7.70
2022-12-08T11:45:32.453Z,7.80
2022-12-08T11:46:32.509Z,7.80
2022-12-08T11:47:32.309Z,7.50
2022-12-08T11:48:32.271Z,7.70
2022-12-08T11:49:32.246Z,7.40
2022-12-08T11:50:32.199Z,7.60
2022-12-08T11:51:32.198Z,7.60
2022-12-08T11:52:32.156Z,8.00
2022-12-08T11:53:32.120Z,7.60
2022-12-08T11:54:32.081Z,7.40
2022-12-08T11:55:36.953Z,7.40
2022-12-08T11:56:32.019Z,8.00
2022-12-08T11:57:32.038Z,7.70
2022-12-08T11:58:31.933Z,7.90
2022-12-08T11:59:31.934Z,8.10
2022-12-08T12:00:31.910Z,7.40
2022-12-08T12:01:31.892Z,7.70
2022-12-08T12:02:31.894Z,7.20
2022-12-08T12:03:31.880Z,7.90
2022-12-08T12:04:31.763Z,7.50
2022-12-08T12:06:05.355Z,7.60
2022-12-08T12:06:53.301Z,8.00
2022-12-08T12:07:35.583Z,7.30
2022-12-08T12:08:35.657Z,7.50
2022-12-08T12:09:35.596Z,7.60
2022-12-08T12:10:35.570Z,7.30
2022-12-08T12:11:35.544Z,7.30
2022-12-08T12:12:41.421Z,7.30
2022-12-08T12:13:41.514Z,7.30
2022-12-08T12:14:41.468Z,7.60
2022-12-08T12:15:41.445Z,7.10
2022-12-08T12:16:41.543Z,7.60
2022-12-08T12:17:41.372Z,6.90
2022-12-08T12:18:41.376Z,7.30
2022-12-08T12:19:41.354Z,6.80
2022-12-08T12:20:41.263Z,6.40
2022-12-08T12:21:41.243Z,6.80
2022-12-08T12:22:41.352Z,7.80
2022-12-08T12:23:41.202Z,7.20
2022-12-08T12:24:41.161Z,7.00
2022-12-08T12:25:41.121Z,6.50
2022-12-08T12:26:41.139Z,6.90
2022-12-08T12:27:41.170Z,6.60
2022-12-08T12:28:41.071Z,7.10
2022-12-08T12:29:41.038Z,7.00
2022-12-08T12:30:41.192Z,6.60
2022-12-08T12:31:41.014Z,7.00
2022-12-08T12:32:40.928Z,6.90
2022-12-08T12:33:40.915Z,6.80
2022-12-08T12:34:40.907Z,6.90
2022-12-08T12:35:44.758Z,6.70
2022-12-08T12:36:44.838Z,7.20
2022-12-08T12:37:44.782Z,7.30
2022-12-08T12:38:44.783Z,6.50
2022-12-08T12:39:44.756Z,6.70
2022-12-08T12:40:44.758Z,6.70
2022-12-08T12:41:44.692Z,6.90
2022-12-08T12:42:44.685Z,7.00
2022-12-08T12:43:44.627Z,7.30
2022-12-08T12:46:44.556Z,6.40
2022-12-08T12:47:44.592Z,7.10
2022-12-08T12:48:44.546Z,7.30
2022-12-08T12:49:44.539Z,7.40
2022-12-08T12:50:44.492Z,7.00
2022-12-08T12:51:44.494Z,7.30
2022-12-08T12:52:44.509Z,7.30
2022-12-08T12:53:49.376Z,7.60
2022-12-08T12:54:49.445Z,7.80
2022-12-08T12:55:49.380Z,7.50
2022-12-08T12:56:49.426Z,7.80
2022-12-08T12:57:49.371Z,7.20
2022-12-08T12:58:49.347Z,6.80
2022-12-08T12:59:55.910Z,7.50
2022-12-08T13:00:54.396Z,6.80
2022-12-08T13:01:54.325Z,7.60
2022-12-08T13:02:54.366Z,6.90
2022-12-08T13:03:54.223Z,6.70
2022-12-08T13:04:54.212Z,6.50
2022-12-08T13:05:59.087Z,6.80
2022-12-08T13:06:59.284Z,7.10
2022-12-08T13:07:59.342Z,7.00